CheckWX is a tool to help pilots better visualize weather data.  It is not intended as a substitute for an official pre-flight weather briefing.

16:54:26 UTC

RPVM TAF
Mactan Cebu International Airport
Lapu-Lapu City, Philippines
TAF RPVM 181100Z 1812/1918 05006KT 9999 FEW020 SCT300 TEMPO 1812/1818 02008KT FEW020 TEMPO 1818/1824 FEW020 BKN300

Jun-18@
12:00 UTC

Jun-18 @ 12:00 UTC

Jun-19@
18:00 UTC

Jun-19 @ 18:00 UTC

TAF RPVM 181100Z 1812/1918 05006KT 9999 FEW020 SCT300
Wind
  • 050° at 6 KTS
Cloud Levels
  • Few at 2,000' AGL
  • Scattered at 30,000' AGL

Jun-18@
12:00 UTC

Jun-18 @ 12:00 UTC

Jun-18@
18:00 UTC

Jun-18 @ 18:00 UTC

TEMPO 1812/1818 02008KT FEW020

Temporary

Temporary Changes expected for less than half the time period

Wind
  • 020° at 8 KTS
Cloud Levels
  • Few at 2,000' AGL

Jun-18@
18:00 UTC

Jun-18 @ 18:00 UTC

Jun-19@
00:00 UTC

Jun-19 @ 00:00 UTC

TEMPO 1818/1824 FEW020 BKN300

Temporary

Temporary Changes expected for less than half the time period

Cloud Levels
  • Few at 2,000' AGL
  • Broken at 30,000' AGL